Aérodrome :
LOGIN :

S'inscrire | Disclaimer

   EN    FR    IT 

 










Légende :    VFR   VFR Marginal   IFR   IFR Intensif   IFR Très Intensif
Visi : 
Plafond : 
>= 8 km
>= 3000ft
5 à 8 km
1000 à 3000 ft
1500m à 5 km
500 à 1000 ft
800 à 1500m
200 à 500 ft
< 800m
< 200 ft
Symboles :   Orages  Brouillard  Fortes neiges  Fortes précipitations  Vent > 20 kt
SIGMETs :   Divers  Orages  Givrage  Turbulence  Onde Orograph.  Cendres Volcan.







- Altitude de l'aérodrome : 277 ft
- Code IATA : JER
- Voir les cartes d'approche


EGJJ - Jersey

DERNIER METAR :
  • 230450Z AUTO 23021G31KT 9999 FEW015/// BKN019/// BKN023/// 13/12 Q0995 RESHRA

METARs EXPIRÉS :
  • 230420Z AUTO 23024KT 9999 FEW011/// SCT015/// OVC017/// 13/12 Q0994 RESHRA
  • 230350Z AUTO 23020KT 9999 FEW007/// BKN012/// OVC015/// 13/13 Q0994 RESHRA
  • 230320Z AUTO 24025KT 5000 FEW008/// BKN009/// OVC011/// 13/12 Q0993 RESHRA
  • 230250Z AUTO 24027KT 9999 BKN014/// BKN016/// OVC019/// 13/12 Q0992 RESHRA
  • 230220Z AUTO 22029G42KT 2300 SHRA FEW007/// SCT011/// BKN014/// 13/12 Q0992 RESHRA

TAF TAF EGJJ
Valide du 23 à 03h jusqu'au 23 à 12h UTC


230158Z 2303/2312 19030G45KT 9999 BKN030
TEMPO 2303/2308 3000 SHRA BKN008 BKN012CB
BECMG 2304/2306 27025G38KT
ATIS : +44 1534 498 073
Pas de NOTAMs connus pour ce terrain.
1 SIGMET publié pour la FIR Brest (LFRR) :
 
Turbulence forte
LFRR SIGMET 1 VALID 230300/230700 LFPW
LFRR BREST FIR/UIR SEV TURB FCST WI N4945 W00300 - N5000 W00200 - N5000 W00015 - N4800 W00015 - N4600 W00215 - N4630 W00415 SFC/FL060 MOV NE 30KT NC=



MET'MAP, la Météo Aéronautique d'un coup d'oeil ! - Copyright ORBIFLY Décembre 2007 - Disclaimer

ORBIFLY MET'MAP TEAM :

Programmation & Développement : Alexandra Zaïnal
Conception & Développement : Baudouin d'Aumeries
Co-Programmation & Développement : Marc-Olivier Méhu
Soutien technique & logistique : Manuel Goepfert

Contact : metmap@orbifly.com




SOURCES & CREDITS :

   NOAA